sensor_id;sensor_type;location;lat;lon;timestamp;P1;durP1;ratioP1;P2;durP2;ratioP2
50092;SDS011;35974;47.752;10.290;2022-09-03T00:01:02;5.75;;;5.15;;
50092;SDS011;35974;47.752;10.290;2022-09-03T00:03:46;6.78;;;6.07;;
50092;SDS011;35974;47.752;10.290;2022-09-03T00:06:29;6.07;;;5.47;;
50092;SDS011;35974;47.752;10.290;2022-09-03T00:09:08;6.25;;;5.18;;
50092;SDS011;35974;47.752;10.290;2022-09-03T00:11:48;6.03;;;5.43;;
50092;SDS011;35974;47.752;10.290;2022-09-03T00:19:26;8.25;;;5.60;;
50092;SDS011;35974;47.752;10.290;2022-09-03T00:21:58;10.77;;;6.18;;
50092;SDS011;35974;47.752;10.290;2022-09-03T00:24:29;7.43;;;5.93;;
50092;SDS011;35974;47.752;10.290;2022-09-03T00:27:02;6.72;;;5.97;;
50092;SDS011;35974;47.752;10.290;2022-09-03T00:32:52;6.97;;;6.28;;
50092;SDS011;35974;47.752;10.290;2022-09-03T00:35:28;7.30;;;6.25;;
50092;SDS011;35974;47.752;10.290;2022-09-03T00:37:57;9.57;;;6.97;;
50092;SDS011;35974;47.752;10.290;2022-09-03T00:43:36;7.60;;;6.20;;
50092;SDS011;35974;47.752;10.290;2022-09-03T01:00:11;7.40;;;5.97;;
50092;SDS011;35974;47.752;10.290;2022-09-03T01:11:01;8.00;;;5.95;;
50092;SDS011;35974;47.752;10.290;2022-09-03T01:13:49;7.53;;;5.78;;
50092;SDS011;35974;47.752;10.290;2022-09-03T01:25:14;6.63;;;5.97;;
50092;SDS011;35974;47.752;10.290;2022-09-03T01:30:32;8.88;;;7.20;;
50092;SDS011;35974;47.752;10.290;2022-09-03T01:33:11;6.70;;;6.00;;
50092;SDS011;35974;47.752;10.290;2022-09-03T01:35:54;9.35;;;8.35;;
50092;SDS011;35974;47.752;10.290;2022-09-03T01:38:36;10.45;;;8.20;;
50092;SDS011;35974;47.752;10.290;2022-09-03T01:44:25;10.27;;;9.20;;
50092;SDS011;35974;47.752;10.290;2022-09-03T01:55:56;9.85;;;7.93;;
50092;SDS011;35974;47.752;10.290;2022-09-03T02:01:53;10.98;;;8.65;;
50092;SDS011;35974;47.752;10.290;2022-09-03T02:04:25;10.43;;;7.78;;
50092;SDS011;35974;47.752;10.290;2022-09-03T02:06:55;10.63;;;8.32;;
50092;SDS011;35974;47.752;10.290;2022-09-03T02:09:25;8.77;;;7.65;;
50092;SDS011;35974;47.752;10.290;2022-09-03T02:12:16;8.48;;;7.57;;
50092;SDS011;35974;47.752;10.290;2022-09-03T02:14:45;8.90;;;7.07;;
50092;SDS011;35974;47.752;10.290;2022-09-03T02:17:12;10.98;;;7.47;;
50092;SDS011;35974;47.752;10.290;2022-09-03T02:19:38;8.18;;;7.38;;
50092;SDS011;35974;47.752;10.290;2022-09-03T02:22:05;7.75;;;6.85;;
50092;SDS011;35974;47.752;10.290;2022-09-03T02:24:32;9.30;;;7.32;;
50092;SDS011;35974;47.752;10.290;2022-09-03T02:26:59;9.68;;;7.47;;
50092;SDS011;35974;47.752;10.290;2022-09-03T02:29:26;9.38;;;7.53;;
50092;SDS011;35974;47.752;10.290;2022-09-03T02:31:53;9.60;;;6.85;;
50092;SDS011;35974;47.752;10.290;2022-09-03T02:34:19;10.82;;;7.80;;
50092;SDS011;35974;47.752;10.290;2022-09-03T02:36:46;8.68;;;7.18;;
50092;SDS011;35974;47.752;10.290;2022-09-03T02:39:13;9.35;;;7.43;;
50092;SDS011;35974;47.752;10.290;2022-09-03T02:41:41;8.98;;;7.57;;
50092;SDS011;35974;47.752;10.290;2022-09-03T02:44:11;9.63;;;7.45;;
50092;SDS011;35974;47.752;10.290;2022-09-03T02:46:54;9.80;;;6.97;;
50092;SDS011;35974;47.752;10.290;2022-09-03T02:49:26;8.60;;;7.68;;
50092;SDS011;35974;47.752;10.290;2022-09-03T02:51:57;8.85;;;7.35;;
50092;SDS011;35974;47.752;10.290;2022-09-03T02:54:31;8.07;;;7.28;;
50092;SDS011;35974;47.752;10.290;2022-09-03T02:57:01;8.45;;;7.13;;
50092;SDS011;35974;47.752;10.290;2022-09-03T02:59:27;11.07;;;7.97;;
50092;SDS011;35974;47.752;10.290;2022-09-03T03:01:54;7.95;;;7.03;;
50092;SDS011;35974;47.752;10.290;2022-09-03T03:04:26;13.43;;;8.43;;
50092;SDS011;35974;47.752;10.290;2022-09-03T03:06:52;9.48;;;7.80;;
50092;SDS011;35974;47.752;10.290;2022-09-03T03:09:19;11.05;;;7.75;;
50092;SDS011;35974;47.752;10.290;2022-09-03T03:11:45;9.02;;;7.72;;
50092;SDS011;35974;47.752;10.290;2022-09-03T03:14:12;10.13;;;7.82;;
50092;SDS011;35974;47.752;10.290;2022-09-03T03:16:38;9.18;;;8.00;;
50092;SDS011;35974;47.752;10.290;2022-09-03T03:19:05;9.50;;;7.90;;
50092;SDS011;35974;47.752;10.290;2022-09-03T03:21:31;8.45;;;7.57;;
50092;SDS011;35974;47.752;10.290;2022-09-03T03:23:57;9.18;;;8.02;;
50092;SDS011;35974;47.752;10.290;2022-09-03T03:26:26;10.00;;;8.30;;
50092;SDS011;35974;47.752;10.290;2022-09-03T03:28:57;10.43;;;8.35;;
50092;SDS011;35974;47.752;10.290;2022-09-03T03:31:25;10.43;;;8.80;;
50092;SDS011;35974;47.752;10.290;2022-09-03T03:33:53;11.75;;;9.18;;
50092;SDS011;35974;47.752;10.290;2022-09-03T03:36:21;12.70;;;10.02;;
50092;SDS011;35974;47.752;10.290;2022-09-03T03:38:51;11.52;;;9.60;;
50092;SDS011;35974;47.752;10.290;2022-09-03T03:41:20;12.10;;;9.35;;
50092;SDS011;35974;47.752;10.290;2022-09-03T03:43:52;11.45;;;9.35;;
50092;SDS011;35974;47.752;10.290;2022-09-03T03:46:23;12.45;;;8.75;;
50092;SDS011;35974;47.752;10.290;2022-09-03T03:48:51;13.07;;;9.63;;
50092;SDS011;35974;47.752;10.290;2022-09-03T03:51:17;9.65;;;8.48;;
50092;SDS011;35974;47.752;10.290;2022-09-03T03:53:45;10.48;;;9.38;;
50092;SDS011;35974;47.752;10.290;2022-09-03T03:56:12;10.20;;;8.23;;
50092;SDS011;35974;47.752;10.290;2022-09-03T03:58:40;10.82;;;8.60;;
50092;SDS011;35974;47.752;10.290;2022-09-03T04:01:12;9.85;;;8.02;;
50092;SDS011;35974;47.752;10.290;2022-09-03T04:03:40;8.70;;;7.80;;
50092;SDS011;35974;47.752;10.290;2022-09-03T04:06:08;10.02;;;8.15;;
50092;SDS011;35974;47.752;10.290;2022-09-03T04:08:37;9.80;;;7.95;;
50092;SDS011;35974;47.752;10.290;2022-09-03T04:11:07;10.05;;;8.60;;
50092;SDS011;35974;47.752;10.290;2022-09-03T04:13:36;10.38;;;8.60;;
50092;SDS011;35974;47.752;10.290;2022-09-03T04:18:32;11.23;;;8.25;;
50092;SDS011;35974;47.752;10.290;2022-09-03T04:21:01;11.32;;;9.15;;
50092;SDS011;35974;47.752;10.290;2022-09-03T04:23:30;10.70;;;8.43;;
50092;SDS011;35974;47.752;10.290;2022-09-03T04:25:57;12.27;;;8.82;;
50092;SDS011;35974;47.752;10.290;2022-09-03T04:28:24;8.95;;;8.05;;
50092;SDS011;35974;47.752;10.290;2022-09-03T04:30:51;8.95;;;7.85;;
50092;SDS011;35974;47.752;10.290;2022-09-03T04:33:19;9.73;;;7.82;;
50092;SDS011;35974;47.752;10.290;2022-09-03T04:35:45;10.55;;;7.75;;
50092;SDS011;35974;47.752;10.290;2022-09-03T04:38:12;8.20;;;7.40;;
50092;SDS011;35974;47.752;10.290;2022-09-03T04:40:38;9.27;;;7.50;;
50092;SDS011;35974;47.752;10.290;2022-09-03T04:43:05;10.38;;;8.32;;
50092;SDS011;35974;47.752;10.290;2022-09-03T04:45:31;8.95;;;7.72;;
50092;SDS011;35974;47.752;10.290;2022-09-03T04:48:01;13.80;;;8.95;;
50092;SDS011;35974;47.752;10.290;2022-09-03T04:50:29;9.95;;;8.13;;
50092;SDS011;35974;47.752;10.290;2022-09-03T04:53:02;9.43;;;7.45;;
50092;SDS011;35974;47.752;10.290;2022-09-03T04:55:34;10.17;;;7.70;;
50092;SDS011;35974;47.752;10.290;2022-09-03T04:58:01;10.65;;;8.40;;
50092;SDS011;35974;47.752;10.290;2022-09-03T05:00:28;8.70;;;7.80;;
50092;SDS011;35974;47.752;10.290;2022-09-03T05:02:55;11.07;;;8.55;;
50092;SDS011;35974;47.752;10.290;2022-09-03T05:05:25;10.77;;;9.43;;
50092;SDS011;35974;47.752;10.290;2022-09-03T05:07:52;8.57;;;7.68;;
50092;SDS011;35974;47.752;10.290;2022-09-03T05:10:18;9.57;;;7.28;;
50092;SDS011;35974;47.752;10.290;2022-09-03T05:13:02;9.68;;;8.43;;
50092;SDS011;35974;47.752;10.290;2022-09-03T05:15:30;9.18;;;7.43;;
50092;SDS011;35974;47.752;10.290;2022-09-03T05:18:01;9.82;;;8.80;;
50092;SDS011;35974;47.752;10.290;2022-09-03T05:20:29;12.35;;;8.93;;
50092;SDS011;35974;47.752;10.290;2022-09-03T05:23:00;9.18;;;8.25;;
50092;SDS011;35974;47.752;10.290;2022-09-03T05:25:29;9.00;;;7.80;;
50092;SDS011;35974;47.752;10.290;2022-09-03T05:27:58;11.63;;;8.88;;
50092;SDS011;35974;47.752;10.290;2022-09-03T05:30:25;8.68;;;7.68;;
50092;SDS011;35974;47.752;10.290;2022-09-03T05:32:52;10.80;;;8.13;;
50092;SDS011;35974;47.752;10.290;2022-09-03T05:35:18;10.27;;;8.60;;
50092;SDS011;35974;47.752;10.290;2022-09-03T05:37:53;9.75;;;7.60;;
50092;SDS011;35974;47.752;10.290;2022-09-03T05:40:20;11.50;;;8.55;;
50092;SDS011;35974;47.752;10.290;2022-09-03T05:42:46;9.48;;;7.78;;
50092;SDS011;35974;47.752;10.290;2022-09-03T05:45:12;8.93;;;8.02;;
50092;SDS011;35974;47.752;10.290;2022-09-03T05:47:39;9.32;;;7.57;;
50092;SDS011;35974;47.752;10.290;2022-09-03T05:50:06;9.40;;;7.93;;
50092;SDS011;35974;47.752;10.290;2022-09-03T05:52:34;11.25;;;9.20;;
50092;SDS011;35974;47.752;10.290;2022-09-03T05:55:01;11.60;;;8.30;;
50092;SDS011;35974;47.752;10.290;2022-09-03T05:57:28;11.48;;;8.82;;
50092;SDS011;35974;47.752;10.290;2022-09-03T05:59:55;10.52;;;8.85;;
50092;SDS011;35974;47.752;10.290;2022-09-03T06:02:22;11.50;;;8.70;;
50092;SDS011;35974;47.752;10.290;2022-09-03T06:04:48;11.90;;;8.30;;
50092;SDS011;35974;47.752;10.290;2022-09-03T06:07:16;10.63;;;8.13;;
50092;SDS011;35974;47.752;10.290;2022-09-03T06:09:42;10.32;;;7.43;;
50092;SDS011;35974;47.752;10.290;2022-09-03T06:12:09;9.82;;;7.80;;
50092;SDS011;35974;47.752;10.290;2022-09-03T06:14:35;9.40;;;8.10;;
50092;SDS011;35974;47.752;10.290;2022-09-03T06:17:02;9.52;;;7.97;;
50092;SDS011;35974;47.752;10.290;2022-09-03T06:19:28;9.13;;;7.35;;
50092;SDS011;35974;47.752;10.290;2022-09-03T06:21:55;11.18;;;6.70;;
50092;SDS011;35974;47.752;10.290;2022-09-03T06:24:21;7.13;;;5.80;;
50092;SDS011;35974;47.752;10.290;2022-09-03T06:26:54;8.95;;;6.03;;
50092;SDS011;35974;47.752;10.290;2022-09-03T06:29:23;7.65;;;5.70;;
50092;SDS011;35974;47.752;10.290;2022-09-03T06:31:49;6.55;;;5.47;;
50092;SDS011;35974;47.752;10.290;2022-09-03T06:34:16;6.32;;;5.53;;
50092;SDS011;35974;47.752;10.290;2022-09-03T06:36:43;6.82;;;5.80;;
50092;SDS011;35974;47.752;10.290;2022-09-03T06:39:10;8.05;;;6.13;;
50092;SDS011;35974;47.752;10.290;2022-09-03T06:41:37;7.53;;;5.57;;
50092;SDS011;35974;47.752;10.290;2022-09-03T06:44:05;6.55;;;5.38;;
50092;SDS011;35974;47.752;10.290;2022-09-03T06:46:37;7.50;;;5.93;;
50092;SDS011;35974;47.752;10.290;2022-09-03T06:49:07;8.07;;;6.18;;
50092;SDS011;35974;47.752;10.290;2022-09-03T06:51:34;7.97;;;6.18;;
50092;SDS011;35974;47.752;10.290;2022-09-03T06:54:10;7.55;;;5.90;;
50092;SDS011;35974;47.752;10.290;2022-09-03T06:56:38;6.63;;;5.72;;
50092;SDS011;35974;47.752;10.290;2022-09-03T06:59:07;6.18;;;5.50;;
50092;SDS011;35974;47.752;10.290;2022-09-03T07:01:35;5.57;;;4.85;;
50092;SDS011;35974;47.752;10.290;2022-09-03T07:04:09;6.28;;;4.75;;
50092;SDS011;35974;47.752;10.290;2022-09-03T07:06:37;6.03;;;5.40;;
50092;SDS011;35974;47.752;10.290;2022-09-03T07:09:05;5.55;;;4.55;;
50092;SDS011;35974;47.752;10.290;2022-09-03T07:11:32;5.95;;;4.80;;
50092;SDS011;35974;47.752;10.290;2022-09-03T07:14:01;5.80;;;4.63;;
50092;SDS011;35974;47.752;10.290;2022-09-03T07:16:31;6.20;;;5.18;;
50092;SDS011;35974;47.752;10.290;2022-09-03T07:19:00;4.60;;;4.18;;
50092;SDS011;35974;47.752;10.290;2022-09-03T07:21:29;6.57;;;4.93;;
50092;SDS011;35974;47.752;10.290;2022-09-03T07:23:59;6.10;;;5.18;;
50092;SDS011;35974;47.752;10.290;2022-09-03T07:26:26;5.90;;;4.32;;
50092;SDS011;35974;47.752;10.290;2022-09-03T07:28:55;4.95;;;4.22;;
50092;SDS011;35974;47.752;10.290;2022-09-03T07:31:24;7.05;;;4.28;;
50092;SDS011;35974;47.752;10.290;2022-09-03T07:33:53;5.28;;;4.18;;
50092;SDS011;35974;47.752;10.290;2022-09-03T07:36:39;6.38;;;4.05;;
50092;SDS011;35974;47.752;10.290;2022-09-03T07:39:08;5.38;;;3.85;;
50092;SDS011;35974;47.752;10.290;2022-09-03T07:41:36;5.60;;;3.90;;
50092;SDS011;35974;47.752;10.290;2022-09-03T07:44:04;4.72;;;4.22;;
50092;SDS011;35974;47.752;10.290;2022-09-03T07:46:31;6.07;;;3.67;;
50092;SDS011;35974;47.752;10.290;2022-09-03T07:49:00;4.80;;;3.35;;
50092;SDS011;35974;47.752;10.290;2022-09-03T07:51:30;4.05;;;3.58;;
50092;SDS011;35974;47.752;10.290;2022-09-03T07:53:59;4.85;;;3.80;;
50092;SDS011;35974;47.752;10.290;2022-09-03T07:56:28;4.10;;;3.38;;
50092;SDS011;35974;47.752;10.290;2022-09-03T07:58:57;3.78;;;3.38;;
50092;SDS011;35974;47.752;10.290;2022-09-03T08:01:25;5.00;;;3.20;;
50092;SDS011;35974;47.752;10.290;2022-09-03T08:03:53;3.50;;;3.20;;
50092;SDS011;35974;47.752;10.290;2022-09-03T08:06:22;4.43;;;3.38;;
50092;SDS011;35974;47.752;10.290;2022-09-03T08:08:58;4.85;;;3.50;;
50092;SDS011;35974;47.752;10.290;2022-09-03T08:11:30;4.13;;;3.10;;
50092;SDS011;35974;47.752;10.290;2022-09-03T08:14:10;8.40;;;3.00;;
50092;SDS011;35974;47.752;10.290;2022-09-03T08:16:39;5.32;;;2.90;;
50092;SDS011;35974;47.752;10.290;2022-09-03T08:19:12;3.30;;;2.78;;
50092;SDS011;35974;47.752;10.290;2022-09-03T08:21:40;3.28;;;2.45;;
50092;SDS011;35974;47.752;10.290;2022-09-03T08:24:07;4.72;;;2.30;;
50092;SDS011;35974;47.752;10.290;2022-09-03T08:26:35;3.90;;;2.47;;
50092;SDS011;35974;47.752;10.290;2022-09-03T08:29:04;2.92;;;2.55;;
50092;SDS011;35974;47.752;10.290;2022-09-03T08:31:31;3.50;;;2.40;;
50092;SDS011;35974;47.752;10.290;2022-09-03T08:33:59;2.58;;;1.98;;
50092;SDS011;35974;47.752;10.290;2022-09-03T08:36:32;3.22;;;2.30;;
50092;SDS011;35974;47.752;10.290;2022-09-03T08:39:02;3.50;;;2.40;;
50092;SDS011;35974;47.752;10.290;2022-09-03T08:44:23;2.30;;;2.05;;
50092;SDS011;35974;47.752;10.290;2022-09-03T08:50:26;2.00;;;1.73;;
50092;SDS011;35974;47.752;10.290;2022-09-03T08:52:58;2.42;;;2.00;;
50092;SDS011;35974;47.752;10.290;2022-09-03T08:55:49;2.25;;;1.92;;
50092;SDS011;35974;47.752;10.290;2022-09-03T08:58:18;2.97;;;2.08;;
50092;SDS011;35974;47.752;10.290;2022-09-03T09:19:38;3.63;;;1.50;;
50092;SDS011;35974;47.752;10.290;2022-09-03T09:22:38;2.50;;;1.58;;
50092;SDS011;35974;47.752;10.290;2022-09-03T09:25:14;1.48;;;1.38;;
50092;SDS011;35974;47.752;10.290;2022-09-03T09:27:50;1.60;;;1.50;;
50092;SDS011;35974;47.752;10.290;2022-09-03T09:30:21;2.17;;;1.50;;
50092;SDS011;35974;47.752;10.290;2022-09-03T09:32:47;3.45;;;1.25;;
50092;SDS011;35974;47.752;10.290;2022-09-03T09:35:14;1.63;;;1.30;;
50092;SDS011;35974;47.752;10.290;2022-09-03T09:37:47;1.70;;;1.30;;
50092;SDS011;35974;47.752;10.290;2022-09-03T09:40:48;1.35;;;1.25;;
50092;SDS011;35974;47.752;10.290;2022-09-03T09:45:42;2.50;;;1.30;;
50092;SDS011;35974;47.752;10.290;2022-09-03T09:48:20;1.85;;;1.30;;
50092;SDS011;35974;47.752;10.290;2022-09-03T09:53:15;1.55;;;1.35;;
50092;SDS011;35974;47.752;10.290;2022-09-03T09:55:50;2.65;;;1.30;;
50092;SDS011;35974;47.752;10.290;2022-09-03T09:58:22;1.40;;;1.30;;
50092;SDS011;35974;47.752;10.290;2022-09-03T10:00:54;1.65;;;1.20;;
50092;SDS011;35974;47.752;10.290;2022-09-03T10:03:25;1.17;;;0.95;;
50092;SDS011;35974;47.752;10.290;2022-09-03T10:06:00;1.80;;;1.40;;
50092;SDS011;35974;47.752;10.290;2022-09-03T10:08:48;1.67;;;1.40;;
50092;SDS011;35974;47.752;10.290;2022-09-03T10:11:16;1.45;;;1.20;;
50092;SDS011;35974;47.752;10.290;2022-09-03T10:13:44;1.92;;;1.17;;
50092;SDS011;35974;47.752;10.290;2022-09-03T10:16:24;1.42;;;1.20;;
50092;SDS011;35974;47.752;10.290;2022-09-03T10:19:04;1.88;;;1.40;;
50092;SDS011;35974;47.752;10.290;2022-09-03T10:21:49;1.48;;;1.20;;
50092;SDS011;35974;47.752;10.290;2022-09-03T10:27:15;1.77;;;1.33;;
50092;SDS011;35974;47.752;10.290;2022-09-03T10:29:43;1.50;;;1.40;;
50092;SDS011;35974;47.752;10.290;2022-09-03T10:32:14;2.33;;;1.30;;
50092;SDS011;35974;47.752;10.290;2022-09-03T10:35:09;2.13;;;1.33;;
50092;SDS011;35974;47.752;10.290;2022-09-03T10:38:06;1.77;;;1.30;;
50092;SDS011;35974;47.752;10.290;2022-09-03T10:46:27;2.33;;;1.60;;
50092;SDS011;35974;47.752;10.290;2022-09-03T10:51:52;1.55;;;1.45;;
50092;SDS011;35974;47.752;10.290;2022-09-03T10:54:42;2.03;;;1.83;;
50092;SDS011;35974;47.752;10.290;2022-09-03T11:00:03;2.55;;;1.73;;
50092;SDS011;35974;47.752;10.290;2022-09-03T11:02:56;2.22;;;1.48;;
50092;SDS011;35974;47.752;10.290;2022-09-03T11:10:44;2.03;;;1.58;;
50092;SDS011;35974;47.752;10.290;2022-09-03T11:13:20;1.65;;;1.48;;
50092;SDS011;35974;47.752;10.290;2022-09-03T11:16:09;1.70;;;1.50;;
50092;SDS011;35974;47.752;10.290;2022-09-03T11:18:50;1.80;;;1.42;;
50092;SDS011;35974;47.752;10.290;2022-09-03T11:21:24;1.70;;;1.20;;
50092;SDS011;35974;47.752;10.290;2022-09-03T11:24:36;1.60;;;1.50;;
50092;SDS011;35974;47.752;10.290;2022-09-03T11:26:49;1.88;;;1.50;;
50092;SDS011;35974;47.752;10.290;2022-09-03T11:33:04;3.92;;;2.00;;
50092;SDS011;35974;47.752;10.290;2022-09-03T11:40:33;2.92;;;1.70;;
50092;SDS011;35974;47.752;10.290;2022-09-03T11:43:12;2.00;;;1.80;;
50092;SDS011;35974;47.752;10.290;2022-09-03T11:51:03;1.50;;;1.35;;
50092;SDS011;35974;47.752;10.290;2022-09-03T11:53:51;1.60;;;1.42;;
50092;SDS011;35974;47.752;10.290;2022-09-03T11:56:23;1.58;;;1.30;;
50092;SDS011;35974;47.752;10.290;2022-09-03T11:59:02;1.40;;;1.10;;
50092;SDS011;35974;47.752;10.290;2022-09-03T12:01:37;1.65;;;1.50;;
50092;SDS011;35974;47.752;10.290;2022-09-03T12:04:09;3.33;;;1.50;;
50092;SDS011;35974;47.752;10.290;2022-09-03T12:14:56;7.38;;;2.25;;
50092;SDS011;35974;47.752;10.290;2022-09-03T12:20:45;6.17;;;1.77;;
50092;SDS011;35974;47.752;10.290;2022-09-03T12:23:24;1.83;;;0.90;;
50092;SDS011;35974;47.752;10.290;2022-09-03T12:26:19;1.25;;;0.80;;
50092;SDS011;35974;47.752;10.290;2022-09-03T12:28:49;0.88;;;0.80;;
50092;SDS011;35974;47.752;10.290;2022-09-03T12:31:21;2.28;;;0.70;;
50092;SDS011;35974;47.752;10.290;2022-09-03T12:33:58;0.88;;;0.63;;
50092;SDS011;35974;47.752;10.290;2022-09-03T12:36:39;1.13;;;0.60;;
50092;SDS011;35974;47.752;10.290;2022-09-03T12:39:08;3.30;;;0.70;;
50092;SDS011;35974;47.752;10.290;2022-09-03T12:41:38;1.08;;;0.50;;
50092;SDS011;35974;47.752;10.290;2022-09-03T12:47:16;0.35;;;0.35;;
50092;SDS011;35974;47.752;10.290;2022-09-03T12:50:07;1.45;;;0.70;;
50092;SDS011;35974;47.752;10.290;2022-09-03T12:57:43;0.77;;;0.52;;
50092;SDS011;35974;47.752;10.290;2022-09-03T13:00:13;1.27;;;0.60;;
50092;SDS011;35974;47.752;10.290;2022-09-03T13:03:04;1.25;;;0.50;;
50092;SDS011;35974;47.752;10.290;2022-09-03T13:05:36;2.30;;;0.68;;
50092;SDS011;35974;47.752;10.290;2022-09-03T13:08:22;0.68;;;0.63;;
50092;SDS011;35974;47.752;10.290;2022-09-03T13:10:54;1.40;;;0.60;;
50092;SDS011;35974;47.752;10.290;2022-09-03T13:13:27;1.90;;;0.63;;
50092;SDS011;35974;47.752;10.290;2022-09-03T13:16:02;1.17;;;0.60;;
50092;SDS011;35974;47.752;10.290;2022-09-03T13:21:42;2.75;;;1.00;;
50092;SDS011;35974;47.752;10.290;2022-09-03T13:24:25;2.75;;;1.20;;
50092;SDS011;35974;47.752;10.290;2022-09-03T13:27:12;1.25;;;1.02;;
50092;SDS011;35974;47.752;10.290;2022-09-03T13:30:06;1.35;;;0.70;;
50092;SDS011;35974;47.752;10.290;2022-09-03T13:32:55;1.70;;;0.90;;
50092;SDS011;35974;47.752;10.290;2022-09-03T13:38:29;1.73;;;1.00;;
50092;SDS011;35974;47.752;10.290;2022-09-03T13:44:06;3.22;;;1.15;;
50092;SDS011;35974;47.752;10.290;2022-09-03T13:46:45;3.25;;;1.00;;
50092;SDS011;35974;47.752;10.290;2022-09-03T13:49:33;1.67;;;1.13;;
50092;SDS011;35974;47.752;10.290;2022-09-03T13:55:14;1.75;;;1.13;;
50092;SDS011;35974;47.752;10.290;2022-09-03T13:57:49;1.45;;;0.90;;
50092;SDS011;35974;47.752;10.290;2022-09-03T14:03:02;3.00;;;0.80;;
50092;SDS011;35974;47.752;10.290;2022-09-03T14:11:57;0.85;;;0.70;;
50092;SDS011;35974;47.752;10.290;2022-09-03T14:17:31;1.45;;;0.57;;
50092;SDS011;35974;47.752;10.290;2022-09-03T14:20:09;0.82;;;0.70;;
50092;SDS011;35974;47.752;10.290;2022-09-03T14:25:55;0.65;;;0.60;;
50092;SDS011;35974;47.752;10.290;2022-09-03T14:33:55;0.73;;;0.60;;
50092;SDS011;35974;47.752;10.290;2022-09-03T14:36:44;1.38;;;0.52;;
50092;SDS011;35974;47.752;10.290;2022-09-03T14:42:14;0.52;;;0.35;;
50092;SDS011;35974;47.752;10.290;2022-09-03T14:45:12;0.65;;;0.50;;
50092;SDS011;35974;47.752;10.290;2022-09-03T15:02:59;0.52;;;0.50;;
50092;SDS011;35974;47.752;10.290;2022-09-03T15:05:40;1.77;;;0.60;;
50092;SDS011;35974;47.752;10.290;2022-09-03T15:10:44;0.57;;;0.57;;
50092;SDS011;35974;47.752;10.290;2022-09-03T15:13:34;0.60;;;0.52;;
50092;SDS011;35974;47.752;10.290;2022-09-03T15:16:19;0.68;;;0.68;;
50092;SDS011;35974;47.752;10.290;2022-09-03T15:19:04;2.00;;;0.70;;
50092;SDS011;35974;47.752;10.290;2022-09-03T15:26:55;0.90;;;0.70;;
50092;SDS011;35974;47.752;10.290;2022-09-03T15:29:47;1.02;;;0.80;;
50092;SDS011;35974;47.752;10.290;2022-09-03T15:32:20;1.23;;;0.90;;
50092;SDS011;35974;47.752;10.290;2022-09-03T15:37:30;0.88;;;0.80;;
50092;SDS011;35974;47.752;10.290;2022-09-03T15:40:02;1.10;;;0.90;;
50092;SDS011;35974;47.752;10.290;2022-09-03T15:42:34;1.20;;;0.80;;
50092;SDS011;35974;47.752;10.290;2022-09-03T15:45:06;0.70;;;0.70;;
50092;SDS011;35974;47.752;10.290;2022-09-03T15:53:03;1.00;;;0.68;;
50092;SDS011;35974;47.752;10.290;2022-09-03T15:58:51;0.95;;;0.65;;
50092;SDS011;35974;47.752;10.290;2022-09-03T16:01:27;0.90;;;0.70;;
50092;SDS011;35974;47.752;10.290;2022-09-03T16:04:18;0.80;;;0.70;;
50092;SDS011;35974;47.752;10.290;2022-09-03T16:07:02;2.15;;;0.65;;
50092;SDS011;35974;47.752;10.290;2022-09-03T16:17:41;0.98;;;0.70;;
50092;SDS011;35974;47.752;10.290;2022-09-03T16:23:11;0.63;;;0.50;;
50092;SDS011;35974;47.752;10.290;2022-09-03T16:25:51;0.55;;;0.55;;
50092;SDS011;35974;47.752;10.290;2022-09-03T16:28:27;0.50;;;0.50;;
50092;SDS011;35974;47.752;10.290;2022-09-03T16:36:31;0.98;;;0.50;;
50092;SDS011;35974;47.752;10.290;2022-09-03T16:41:43;1.40;;;0.85;;
50092;SDS011;35974;47.752;10.290;2022-09-03T16:47:07;1.30;;;0.90;;
50092;SDS011;35974;47.752;10.290;2022-09-03T16:55:12;0.63;;;0.55;;
50092;SDS011;35974;47.752;10.290;2022-09-03T16:57:48;1.10;;;0.63;;
50092;SDS011;35974;47.752;10.290;2022-09-03T17:00:21;0.70;;;0.60;;
50092;SDS011;35974;47.752;10.290;2022-09-03T17:11:41;0.90;;;0.57;;
50092;SDS011;35974;47.752;10.290;2022-09-03T17:17:16;2.05;;;0.70;;
50092;SDS011;35974;47.752;10.290;2022-09-03T17:25:38;0.73;;;0.60;;
50092;SDS011;35974;47.752;10.290;2022-09-03T17:30:57;1.83;;;0.60;;
50092;SDS011;35974;47.752;10.290;2022-09-03T17:58:16;2.53;;;1.48;;
50092;SDS011;35974;47.752;10.290;2022-09-03T18:00:59;2.95;;;1.48;;
50092;SDS011;35974;47.752;10.290;2022-09-03T18:03:46;3.13;;;1.50;;
50092;SDS011;35974;47.752;10.290;2022-09-03T18:14:34;3.42;;;2.08;;
50092;SDS011;35974;47.752;10.290;2022-09-03T18:20:10;6.13;;;2.90;;
50092;SDS011;35974;47.752;10.290;2022-09-03T18:26:14;2.60;;;1.63;;
50092;SDS011;35974;47.752;10.290;2022-09-03T18:29:12;6.35;;;2.85;;
50092;SDS011;35974;47.752;10.290;2022-09-03T18:32:04;4.82;;;2.60;;
50092;SDS011;35974;47.752;10.290;2022-09-03T18:34:49;4.15;;;2.10;;
50092;SDS011;35974;47.752;10.290;2022-09-03T18:37:36;5.63;;;2.97;;
50092;SDS011;35974;47.752;10.290;2022-09-03T18:40:24;5.78;;;2.72;;
50092;SDS011;35974;47.752;10.290;2022-09-03T18:43:30;4.20;;;1.83;;
50092;SDS011;35974;47.752;10.290;2022-09-03T18:46:36;2.70;;;1.60;;
50092;SDS011;35974;47.752;10.290;2022-09-03T18:49:57;5.70;;;2.20;;
50092;SDS011;35974;47.752;10.290;2022-09-03T19:08:40;4.82;;;2.85;;
50092;SDS011;35974;47.752;10.290;2022-09-03T19:11:44;6.07;;;2.42;;
50092;SDS011;35974;47.752;10.290;2022-09-03T19:18:07;4.85;;;2.80;;
50092;SDS011;35974;47.752;10.290;2022-09-03T19:21:02;2.97;;;1.80;;
50092;SDS011;35974;47.752;10.290;2022-09-03T19:24:00;1.95;;;1.40;;
50092;SDS011;35974;47.752;10.290;2022-09-03T19:30:23;2.28;;;1.48;;
50092;SDS011;35974;47.752;10.290;2022-09-03T19:45:58;2.03;;;1.75;;
50092;SDS011;35974;47.752;10.290;2022-09-03T19:52:08;3.85;;;1.50;;
50092;SDS011;35974;47.752;10.290;2022-09-03T19:55:05;2.22;;;1.60;;
50092;SDS011;35974;47.752;10.290;2022-09-03T19:57:57;3.00;;;1.60;;
50092;SDS011;35974;47.752;10.290;2022-09-03T20:01:04;5.63;;;2.08;;
50092;SDS011;35974;47.752;10.290;2022-09-03T20:03:51;7.60;;;2.78;;
50092;SDS011;35974;47.752;10.290;2022-09-03T20:06:40;4.78;;;2.80;;
50092;SDS011;35974;47.752;10.290;2022-09-03T20:09:27;3.67;;;2.65;;
50092;SDS011;35974;47.752;10.290;2022-09-03T20:12:22;4.13;;;2.90;;
50092;SDS011;35974;47.752;10.290;2022-09-03T20:14:53;6.22;;;3.60;;
50092;SDS011;35974;47.752;10.290;2022-09-03T20:25:47;3.38;;;2.00;;
50092;SDS011;35974;47.752;10.290;2022-09-03T20:28:26;3.00;;;1.80;;
50092;SDS011;35974;47.752;10.290;2022-09-03T20:51:00;1.55;;;1.45;;
50092;SDS011;35974;47.752;10.290;2022-09-03T20:53:53;2.38;;;1.92;;
50092;SDS011;35974;47.752;10.290;2022-09-03T21:06:40;5.30;;;1.65;;
50092;SDS011;35974;47.752;10.290;2022-09-03T21:23:20;2.95;;;1.67;;
50092;SDS011;35974;47.752;10.290;2022-09-03T21:31:33;1.73;;;1.40;;
50092;SDS011;35974;47.752;10.290;2022-09-03T21:34:19;3.15;;;1.67;;
50092;SDS011;35974;47.752;10.290;2022-09-03T21:36:50;3.75;;;1.58;;
50092;SDS011;35974;47.752;10.290;2022-09-03T21:39:25;3.67;;;1.67;;
50092;SDS011;35974;47.752;10.290;2022-09-03T21:47:07;4.38;;;1.77;;
50092;SDS011;35974;47.752;10.290;2022-09-03T21:50:19;5.07;;;1.60;;
50092;SDS011;35974;47.752;10.290;2022-09-03T21:55:21;2.88;;;1.50;;
50092;SDS011;35974;47.752;10.290;2022-09-03T22:00:54;2.60;;;1.70;;
50092;SDS011;35974;47.752;10.290;2022-09-03T22:03:23;2.88;;;1.45;;
50092;SDS011;35974;47.752;10.290;2022-09-03T22:05:55;3.45;;;1.60;;
50092;SDS011;35974;47.752;10.290;2022-09-03T22:08:29;4.05;;;1.67;;